Time;durP1;ratioP1;P1;durP2;ratioP2;P2;SDS_P1;SDS_P2;PMS_P1;PMS_P2;Temp;Humidity;BMP_temperature;BMP_pressure;BME280_temperature;BME280_humidity;BME280_pressure;Samples;Min_cycle;Max_cycle;Signal;HPM_P1;HPM_P2
2022/01/16 00:04:45;;;;;;;15.43;7.43;;;;;;;1.99;70.89;100148.75;4957980;28;20440;-84
2022/01/16 00:07:11;;;;;;;21.20;9.97;;;;;;;2.72;71.03;100286.88;4954907;29;20455;-82
2022/01/16 00:09:37;;;;;;;18.50;9.80;;;;;;;1.73;71.64;100121.47;4955652;29;20255;-83
2022/01/16 00:12:07;;;;;;;19.33;9.23;;;;;;;0.77;71.14;100008.78;4954647;29;20404;-84
2022/01/16 00:14:33;;;;;;;20.27;9.30;;;;;;;0.63;71.84;99959.31;4956522;29;20665;-83
2022/01/16 00:16:59;;;;;;;17.17;8.73;;;;;;;2.47;71.81;100314.59;4955961;29;20428;-83
2022/01/16 00:19:25;;;;;;;18.77;8.50;;;;;;;0.76;71.10;100024.47;4940708;29;20444;-83
2022/01/16 00:21:51;;;;;;;20.00;8.80;;;;;;;2.70;71.13;100363.38;4957364;29;20428;-84
2022/01/16 00:24:17;;;;;;;18.77;9.37;;;;;;;2.66;72.04;100370.47;4956377;29;20976;-83
2022/01/16 00:26:43;;;;;;;15.77;6.73;;;;;;;2.60;71.58;100402.41;4954734;29;20408;-83
2022/01/16 00:29:09;;;;;;;19.33;8.40;;;;;;;2.27;72.38;100355.25;4956489;29;20223;-84
2022/01/16 00:31:37;;;;;;;20.13;9.57;;;;;;;1.49;72.10;100252.38;4961461;29;20173;-82
2022/01/16 00:34:08;;;;;;;18.87;9.20;;;;;;;-0.58;72.65;99958.78;4961117;29;20412;-83
2022/01/16 00:36:33;;;;;;;17.03;8.50;;;;;;;-0.50;72.32;99939.59;4954856;29;20462;-82
2022/01/16 00:38:59;;;;;;;18.47;9.63;;;;;;;0.68;71.58;100082.69;4952287;29;20492;-82
2022/01/16 00:41:25;;;;;;;18.40;9.30;;;;;;;1.99;72.68;100263.59;4967880;28;20575;-82
2022/01/16 00:43:52;;;;;;;16.07;7.70;;;;;;;0.73;71.67;100014.22;4993372;28;20168;-84
2022/01/16 00:46:18;;;;;;;19.27;9.57;;;;;;;2.16;72.42;100204.44;4993434;28;20399;-83
2022/01/16 00:48:44;;;;;;;17.87;9.30;;;;;;;2.13;72.21;100181.69;4992356;28;20414;-82
2022/01/16 00:51:11;;;;;;;18.77;9.57;;;;;;;-0.74;72.63;99706.97;4992934;28;20517;-82
2022/01/16 00:53:39;;;;;;;19.47;8.60;;;;;;;1.79;72.88;100120.38;4992893;28;20411;-83
2022/01/16 00:56:04;;;;;;;18.67;8.97;;;;;;;1.74;72.23;100153.16;4993252;28;20549;-82
2022/01/16 00:58:30;;;;;;;18.73;9.63;;;;;;;1.33;72.21;100053.78;4993457;28;20450;-82
2022/01/16 01:00:56;;;;;;;18.87;9.50;;;;;;;2.24;72.12;100240.09;5008465;28;20182;-86
2022/01/16 01:03:21;;;;;;;19.60;9.57;;;;;;;1.64;72.21;100193.91;4993412;28;20625;-83
2022/01/16 01:05:46;;;;;;;12.73;6.00;;;;;;;1.83;71.83;100228.00;4992316;28;20588;-82
2022/01/16 01:08:12;;;;;;;18.63;9.10;;;;;;;2.31;71.74;100334.78;4993291;28;20168;-83
2022/01/16 01:10:40;;;;;;;17.07;9.07;;;;;;;1.63;72.04;100216.19;4993049;28;20159;-83
2022/01/16 01:13:21;;;;;;;16.00;7.80;;;;;;;2.35;71.43;100311.88;4993233;28;20163;-83
2022/01/16 01:15:50;;;;;;;16.47;7.43;;;;;;;2.40;71.19;100318.16;4993087;28;20521;-82
2022/01/16 01:18:18;;;;;;;12.20;5.53;;;;;;;2.35;70.92;100321.84;4986274;28;20442;-82
2022/01/16 01:20:46;;;;;;;16.53;8.00;;;;;;;0.48;70.89;100039.38;4978322;28;20391;-83
2022/01/16 01:23:12;;;;;;;21.13;8.37;;;;;;;2.39;70.74;100309.75;4978198;28;20457;-83
2022/01/16 01:25:38;;;;;;;17.97;8.40;;;;;;;2.30;71.72;100311.47;4977780;28;20494;-84
2022/01/16 01:28:05;;;;;;;15.20;7.30;;;;;;;-0.62;71.44;99845.72;4977013;28;20243;-83
2022/01/16 01:30:30;;;;;;;16.23;7.13;;;;;;;1.58;71.13;100212.41;4977096;28;20471;-83
2022/01/16 01:32:56;;;;;;;16.57;7.27;;;;;;;-0.06;70.75;99922.25;4977380;28;20403;-83
2022/01/16 01:35:22;;;;;;;17.10;8.27;;;;;;;0.86;70.68;100079.38;4977638;28;20664;-82
2022/01/16 01:37:48;;;;;;;12.40;5.90;;;;;;;0.81;70.10;100088.06;4977022;28;20422;-83
2022/01/16 01:40:20;;;;;;;15.07;7.10;;;;;;;2.44;70.20;100342.69;4977136;28;20279;-83
2022/01/16 01:43:01;;;;;;;17.23;7.03;;;;;;;1.98;69.94;100276.84;4983262;28;20191;-82
2022/01/16 01:51:21;;;;;;;15.17;7.57;;;;;;;1.68;72.20;100270.78;4977821;28;20485;-84
2022/01/16 01:53:51;;;;;;;15.33;7.80;;;;;;;1.29;72.19;100226.34;4973999;28;20411;-83
2022/01/16 01:56:18;;;;;;;15.60;7.67;;;;;;;1.41;72.37;100247.41;4975251;28;20835;-83
2022/01/16 01:58:44;;;;;;;17.40;8.30;;;;;;;0.92;73.25;100162.19;4977605;28;20462;-82
2022/01/16 02:01:10;;;;;;;27.97;13.20;;;;;;;-0.23;73.68;99992.81;4976748;28;20411;-83
2022/01/16 02:06:16;;;;;;;21.83;11.33;;;;;;;0.63;74.33;100153.63;4976454;28;20251;-83
2022/01/16 02:08:44;;;;;;;18.80;9.80;;;;;;;1.68;75.61;100378.09;4976882;28;20403;-82
2022/01/16 02:11:14;;;;;;;37.60;18.30;;;;;;;0.97;75.13;100256.59;4976659;28;20434;-82
2022/01/16 02:13:55;;;;;;;22.80;11.93;;;;;;;0.33;75.70;100152.47;4985693;28;20457;-82
2022/01/16 02:28:05;;;;;;;12.37;5.53;;;;;;;1.42;76.30;100388.88;5015721;28;20408;-84
2022/01/16 02:30:59;;;;;;;16.50;7.10;;;;;;;1.04;76.17;100312.91;4998215;28;20468;-83
2022/01/16 02:34:31;;;;;;;15.50;7.27;;;;;;;1.36;75.75;100344.25;5013946;28;20413;-83
2022/01/16 02:36:22;;;;;;;17.53;7.90;;;;;;;1.53;76.17;100365.81;5014620;28;20492;-84
2022/01/16 02:38:48;;;;;;;13.97;7.00;;;;;;;1.38;75.78;100337.78;5014549;28;20405;-83
2022/01/16 02:41:14;;;;;;;15.80;7.40;;;;;;;-1.79;74.87;99786.41;5015038;28;20768;-82
2022/01/16 02:43:45;;;;;;;17.90;8.43;;;;;;;-0.30;75.15;100051.81;5014885;28;20467;-84
2022/01/16 02:48:39;;;;;;;17.33;8.20;;;;;;;-1.29;73.79;99848.38;5015020;28;20449;-83
2022/01/16 02:51:04;;;;;;;17.80;7.03;;;;;;;0.74;73.25;100190.41;5015467;28;20432;-83
2022/01/16 02:53:30;;;;;;;17.90;8.60;;;;;;;-0.31;73.25;100015.22;5015211;28;20163;-82
2022/01/16 02:55:55;;;;;;;18.10;9.07;;;;;;;1.69;73.21;100387.34;5015332;28;20226;-83
2022/01/16 02:58:21;;;;;;;18.10;9.63;;;;;;;-1.30;72.81;99849.13;5014893;28;20261;-83
2022/01/16 03:00:46;;;;;;;19.20;9.40;;;;;;;1.23;73.30;100290.59;5014318;28;20174;-83
2022/01/16 03:03:11;;;;;;;19.07;8.43;;;;;;;-2.03;72.96;99728.56;5014897;28;20166;-83
2022/01/16 03:05:37;;;;;;;14.50;7.23;;;;;;;0.36;73.04;100115.41;5014619;28;20159;-82
2022/01/16 03:08:04;;;;;;;19.67;8.37;;;;;;;-1.12;72.47;99847.50;5014466;28;20250;-82
2022/01/16 03:12:55;;;;;;;16.70;7.80;;;;;;;1.73;72.95;100331.13;5014571;28;20878;-83
2022/01/16 03:15:22;;;;;;;17.80;8.20;;;;;;;0.50;72.81;100139.13;4996609;28;20233;-83
2022/01/16 03:23:11;;;;;;;15.03;6.53;;;;;;;1.50;74.59;100340.56;5014599;28;20413;-82
2022/01/16 03:25:37;;;;;;;17.03;8.10;;;;;;;1.01;74.65;100267.75;5014200;28;20783;-82
2022/01/16 03:28:03;;;;;;;17.30;8.47;;;;;;;1.12;74.50;100295.47;4996901;28;20225;-82
2022/01/16 03:30:29;;;;;;;18.57;8.43;;;;;;;1.41;74.65;100350.56;5013836;28;20183;-82
2022/01/16 03:32:54;;;;;;;18.97;8.03;;;;;;;0.91;74.85;100285.94;5012502;28;20182;-83
2022/01/16 03:35:20;;;;;;;20.47;8.47;;;;;;;1.29;75.20;100366.00;4996544;28;20198;-82
2022/01/16 03:37:45;;;;;;;18.23;8.53;;;;;;;-0.17;76.00;100136.81;5014029;28;20163;-83
2022/01/16 03:40:12;;;;;;;18.53;8.77;;;;;;;1.23;76.08;100370.41;4995482;28;20162;-82
2022/01/16 03:42:39;;;;;;;20.20;9.03;;;;;;;1.17;76.20;100370.69;5013608;28;20178;-83
2022/01/16 03:45:06;;;;;;;18.33;8.77;;;;;;;0.87;76.04;100318.78;5013787;28;20394;-83
2022/01/16 03:47:32;;;;;;;17.60;8.90;;;;;;;0.09;75.89;100189.97;5013946;28;20402;-84
2022/01/16 03:49:57;;;;;;;20.17;8.30;;;;;;;1.10;76.27;100388.28;5013240;28;20405;-84
2022/01/16 03:52:23;;;;;;;20.10;8.90;;;;;;;-0.15;76.19;100166.09;5013042;28;20170;-83
2022/01/16 03:54:49;;;;;;;17.77;8.97;;;;;;;-0.35;76.53;100137.50;5013241;28;20194;-83
2022/01/16 03:57:14;;;;;;;21.50;10.67;;;;;;;0.71;76.85;100339.59;5013388;28;20552;-83
2022/01/16 03:59:40;;;;;;;21.43;10.00;;;;;;;1.07;75.38;100401.31;5013385;28;20158;-82
2022/01/16 04:02:05;;;;;;;17.53;7.30;;;;;;;-0.17;74.38;100161.69;5012324;28;20750;-82
2022/01/16 04:04:31;;;;;;;19.00;8.97;;;;;;;1.21;73.71;100405.13;5015219;28;20555;-83
2022/01/16 04:06:59;;;;;;;17.53;8.43;;;;;;;0.35;73.92;100255.63;5015384;28;20171;-83
2022/01/16 04:09:24;;;;;;;21.60;9.00;;;;;;;-0.60;73.21;100075.44;5013223;28;20265;-83
2022/01/16 04:11:53;;;;;;;17.93;8.60;;;;;;;-0.23;73.61;100152.03;4995734;28;20418;-82
2022/01/16 04:17:04;;;;;;;15.23;6.87;;;;;;;0.92;73.85;100356.59;5013194;28;20400;-83
2022/01/16 04:19:29;;;;;;;17.37;7.93;;;;;;;0.43;74.17;100283.75;5013115;28;20865;-83
2022/01/16 04:21:55;;;;;;;16.33;7.43;;;;;;;1.16;74.83;100398.84;4995442;28;20239;-82
2022/01/16 04:24:20;;;;;;;15.23;7.20;;;;;;;-1.25;74.63;99996.06;5014246;28;20599;-82
2022/01/16 04:26:47;;;;;;;17.50;7.90;;;;;;;0.05;74.19;100225.25;5014129;28;20205;-83
2022/01/16 04:29:12;;;;;;;16.60;7.30;;;;;;;-2.35;73.89;99798.94;5013174;28;20830;-83
2022/01/16 04:31:37;;;;;;;16.57;7.20;;;;;;;1.10;74.16;100420.69;5014554;28;20623;-84
2022/01/16 04:34:03;;;;;;;13.63;6.77;;;;;;;0.70;73.18;100347.78;4996757;28;20202;-82
2022/01/16 04:36:28;;;;;;;16.60;7.50;;;;;;;-0.65;73.32;100098.97;5013906;28;20729;-82
2022/01/16 04:38:53;;;;;;;13.60;7.20;;;;;;;-1.96;72.99;99912.88;5014323;28;20163;-83
2022/01/16 04:44:05;;;;;;;9.37;5.00;;;;;;;-0.39;72.55;100137.94;5014225;28;20637;-82
2022/01/16 04:46:32;;;;;;;15.40;7.63;;;;;;;1.06;72.44;100378.75;5026486;28;20402;-84
2022/01/16 04:48:59;;;;;;;14.03;6.50;;;;;;;0.80;72.39;100345.44;5024363;28;20410;-82
2022/01/16 04:51:27;;;;;;;15.20;7.10;;;;;;;1.19;72.59;100412.50;5013449;28;20405;-83
2022/01/16 04:53:52;;;;;;;14.53;7.47;;;;;;;0.42;72.76;100287.84;5013255;28;20905;-82
2022/01/16 04:56:17;;;;;;;15.07;7.30;;;;;;;1.13;73.21;100408.50;5012876;28;20455;-83
2022/01/16 04:58:44;;;;;;;18.60;7.90;;;;;;;1.00;73.86;100398.09;5013362;28;20186;-83
2022/01/16 05:01:10;;;;;;;19.90;7.93;;;;;;;0.87;74.76;100405.13;5015242;28;20201;-82
2022/01/16 05:03:36;;;;;;;16.17;7.93;;;;;;;0.82;75.37;100416.28;5014810;28;20443;-83
2022/01/16 05:06:03;;;;;;;13.23;7.00;;;;;;;0.71;76.24;100420.22;5014030;28;20409;-81
2022/01/16 05:08:29;;;;;;;16.13;7.60;;;;;;;0.69;76.27;100424.16;5013842;28;20412;-83
2022/01/16 05:10:57;;;;;;;13.90;6.27;;;;;;;0.26;76.20;100351.81;5012742;28;20406;-83
2022/01/16 05:18:36;;;;;;;19.93;9.03;;;;;;;-0.09;76.12;100295.19;5012959;28;20405;-82
2022/01/16 05:21:03;;;;;;;20.73;9.50;;;;;;;0.51;76.00;100418.25;5002401;28;20876;-83
2022/01/16 05:23:28;;;;;;;17.83;9.27;;;;;;;-0.18;76.05;100286.81;5015437;28;20405;-83
2022/01/16 05:25:54;;;;;;;20.60;10.03;;;;;;;0.52;76.17;100421.63;5012527;28;20477;-82
2022/01/16 05:28:20;;;;;;;11.83;6.17;;;;;;;0.52;75.71;100417.50;5012755;28;20217;-83
2022/01/16 05:30:45;;;;;;;15.53;7.60;;;;;;;-0.76;75.27;100184.06;5012319;28;20213;-85
2022/01/16 05:33:11;;;;;;;20.27;7.90;;;;;;;-0.43;75.63;100237.84;5013089;28;20154;-83
2022/01/16 05:35:36;;;;;;;17.27;8.77;;;;;;;-0.07;75.34;100291.25;5012311;28;20265;-82
2022/01/16 05:38:02;;;;;;;19.73;9.43;;;;;;;0.28;75.48;100345.38;5011885;28;20616;-83
2022/01/16 05:40:28;;;;;;;16.77;7.23;;;;;;;-0.97;75.44;100142.16;5012231;28;20171;-83
2022/01/16 05:42:54;;;;;;;12.03;6.47;;;;;;;0.73;75.75;100417.84;5012212;28;20164;-84
2022/01/16 05:45:19;;;;;;;18.67;10.00;;;;;;;-2.38;75.71;99886.25;5012361;28;20540;-84
2022/01/16 05:47:45;;;;;;;22.77;11.03;;;;;;;-1.99;76.51;99998.50;4994796;28;20526;-83
2022/01/16 05:50:10;;;;;;;20.23;9.50;;;;;;;-0.14;77.17;100306.31;5012445;28;20163;-83
2022/01/16 05:52:36;;;;;;;25.57;10.83;;;;;;;0.57;77.19;100460.34;5014143;28;20166;-86
2022/01/16 05:55:01;;;;;;;24.40;10.73;;;;;;;0.57;77.26;100473.66;5012388;28;20198;-85
2022/01/16 05:57:27;;;;;;;34.17;15.67;;;;;;;0.58;76.90;100462.06;5012964;28;20162;-83
2022/01/16 05:59:52;;;;;;;28.83;13.87;;;;;;;-1.57;76.80;100066.47;5012179;28;20668;-84
2022/01/16 06:02:18;;;;;;;26.07;11.47;;;;;;;0.63;76.79;100450.97;5012409;28;20166;-82
2022/01/16 06:04:43;;;;;;;35.93;14.07;;;;;;;-0.87;76.66;100218.50;5015681;28;20155;-83
2022/01/16 06:07:08;;;;;;;34.57;14.40;;;;;;;-2.45;76.34;99918.59;5015837;28;20689;-84
2022/01/16 06:09:34;;;;;;;33.93;15.23;;;;;;;0.57;77.16;100442.88;5015807;28;20234;-82
2022/01/16 06:12:00;;;;;;;63.53;26.00;;;;;;;0.38;77.04;100410.31;5015934;28;20162;-83
2022/01/16 06:14:25;;;;;;;108.00;36.40;;;;;;;-0.70;77.15;100218.59;5015256;28;20315;-83
2022/01/16 06:16:53;;;;;;;78.00;30.27;;;;;;;-0.27;77.78;100299.22;5015659;28;20212;-83
2022/01/16 06:19:19;;;;;;;65.93;25.93;;;;;;;-0.69;78.28;100235.28;5015179;28;20166;-83
2022/01/16 06:21:46;;;;;;;67.50;27.03;;;;;;;-2.19;78.14;99979.13;5015479;28;20796;-83
2022/01/16 06:24:12;;;;;;;76.03;34.07;;;;;;;0.45;78.35;100390.25;5015062;28;20238;-83
2022/01/16 06:26:38;;;;;;;63.33;31.07;;;;;;;-0.32;79.15;100270.53;5015914;28;20874;-83
2022/01/16 06:29:04;;;;;;;57.30;26.63;;;;;;;0.38;79.04;100387.91;4999554;28;20483;-83
2022/01/16 06:31:29;;;;;;;52.10;27.83;;;;;;;-1.61;79.35;100075.22;5015864;28;20166;-83
2022/01/16 06:33:55;;;;;;;32.00;16.90;;;;;;;-1.44;78.71;100105.09;5015399;28;20198;-83
2022/01/16 06:36:20;;;;;;;43.70;23.07;;;;;;;1.15;78.65;100515.16;5015261;28;20206;-82
2022/01/16 06:38:46;;;;;;;39.70;20.07;;;;;;;-0.66;78.29;100219.03;5015629;28;20163;-85
2022/01/16 06:41:12;;;;;;;33.70;16.33;;;;;;;-0.69;77.84;100173.97;5015221;28;20189;-84
2022/01/16 06:43:38;;;;;;;34.20;15.70;;;;;;;-0.60;77.38;100174.00;5020769;28;20165;-85
2022/01/16 06:46:04;;;;;;;23.77;11.60;;;;;;;-2.40;77.36;99886.13;5018386;28;20244;-83
2022/01/16 06:48:30;;;;;;;19.47;9.50;;;;;;;1.34;77.56;100504.50;5015496;28;20893;-83
2022/01/16 06:50:55;;;;;;;26.43;12.80;;;;;;;1.60;77.46;100510.34;5018029;28;20157;-87
2022/01/16 06:53:21;;;;;;;24.43;11.47;;;;;;;1.58;76.94;100497.75;5020639;28;20476;-82
2022/01/16 06:55:46;;;;;;;21.47;11.13;;;;;;;0.77;77.14;100360.97;5017113;28;20641;-84
2022/01/16 06:58:12;;;;;;;17.57;8.70;;;;;;;-0.39;77.04;100120.53;4999988;28;20202;-83
2022/01/16 07:00:37;;;;;;;67.83;22.47;;;;;;;1.15;76.91;100373.03;5015924;28;20163;-82
2022/01/16 07:03:02;;;;;;;91.07;32.50;;;;;;;1.05;76.72;100344.56;5014544;28;20169;-82
2022/01/16 07:05:28;;;;;;;28.97;14.40;;;;;;;0.71;75.94;100270.72;4997826;28;20181;-84
2022/01/16 07:07:53;;;;;;;34.07;18.33;;;;;;;2.02;75.70;100498.59;4998568;28;20175;-84
2022/01/16 07:10:20;;;;;;;39.37;19.80;;;;;;;1.75;75.20;100460.31;5015636;28;20238;-83
2022/01/16 07:12:45;;;;;;;31.10;17.17;;;;;;;0.02;74.85;100120.44;5015546;28;20584;-83
2022/01/16 07:15:11;;;;;;;28.30;14.70;;;;;;;1.41;74.44;100363.03;5014299;28;20469;-83
2022/01/16 07:17:37;;;;;;;23.40;10.37;;;;;;;1.47;72.13;100228.91;5015917;28;20175;-82
2022/01/16 07:20:03;;;;;;;20.17;10.63;;;;;;;3.64;68.62;100440.91;5016907;28;20163;-84
2022/01/16 07:22:28;;;;;;;39.10;19.77;;;;;;;2.92;68.38;100313.66;5019663;28;20163;-82
2022/01/16 07:24:54;;;;;;;28.10;13.50;;;;;;;0.58;70.57;99999.63;5022554;28;20155;-82
2022/01/16 07:27:20;;;;;;;24.57;10.53;;;;;;;3.16;71.96;100547.59;5018989;28;20507;-84
2022/01/16 07:29:46;;;;;;;26.63;12.80;;;;;;;1.69;73.37;100341.53;5019075;28;20167;-86
2022/01/16 07:32:11;;;;;;;27.27;13.13;;;;;;;2.22;73.55;100373.94;5017404;28;20483;-82
2022/01/16 07:34:37;;;;;;;29.37;15.17;;;;;;;-0.34;74.28;100023.25;5016359;28;20167;-84
2022/01/16 07:37:02;;;;;;;38.77;19.03;;;;;;;2.85;74.46;100527.28;5018428;28;20177;-84
2022/01/16 07:39:28;;;;;;;38.63;17.90;;;;;;;0.35;73.88;100058.91;5017127;28;20169;-84
2022/01/16 07:41:53;;;;;;;30.60;11.70;;;;;;;2.23;75.22;100475.59;5016817;28;20652;-83
2022/01/16 07:44:18;;;;;;;60.47;21.97;;;;;;;0.79;76.44;100249.00;5014217;28;20174;-83
2022/01/16 07:46:45;;;;;;;58.03;22.03;;;;;;;1.85;74.79;100338.84;5021754;28;20642;-83
2022/01/16 07:49:10;;;;;;;61.97;28.30;;;;;;;2.92;75.20;100473.69;5002108;28;20197;-83
2022/01/16 07:51:36;;;;;;;31.57;13.53;;;;;;;0.70;75.37;100193.31;5016201;28;20890;-83
2022/01/16 07:54:01;;;;;;;42.00;19.03;;;;;;;1.59;75.87;100301.50;5016109;28;20162;-83
2022/01/16 07:56:27;;;;;;;40.90;21.00;;;;;;;2.18;75.13;100414.34;5020721;28;20186;-84
2022/01/16 07:58:53;;;;;;;45.70;20.27;;;;;;;0.70;75.04;100097.03;5018598;28;20173;-83
2022/01/16 08:01:18;;;;;;;33.80;14.57;;;;;;;1.11;74.56;100195.56;4998318;28;20166;-84
2022/01/16 08:03:43;;;;;;;23.43;11.67;;;;;;;1.33;75.56;100278.25;4998271;28;20228;-84
2022/01/16 08:06:10;;;;;;;60.00;28.07;;;;;;;1.07;75.48;100146.19;5016387;28;20159;-84
2022/01/16 08:08:37;;;;;;;42.33;20.90;;;;;;;4.33;73.42;100576.44;5015180;28;20155;-83
2022/01/16 08:11:02;;;;;;;40.43;21.23;;;;;;;3.82;72.32;100495.97;5014491;28;20909;-84
2022/01/16 08:13:28;;;;;;;39.87;17.70;;;;;;;1.38;71.74;100095.84;4997335;28;20499;-83
2022/01/16 08:15:53;;;;;;;41.77;18.37;;;;;;;1.91;74.37;100242.03;5015630;28;20194;-83
2022/01/16 08:18:19;;;;;;;31.73;16.47;;;;;;;3.37;74.31;100454.41;5022289;28;20241;-85
2022/01/16 08:20:44;;;;;;;34.03;17.20;;;;;;;2.35;74.01;100280.28;5018143;28;20186;-84
2022/01/16 08:23:10;;;;;;;52.57;25.90;;;;;;;2.68;72.13;100224.88;5017234;28;20643;-84
2022/01/16 08:25:35;;;;;;;27.97;13.67;;;;;;;1.25;73.70;100089.63;5015283;28;20163;-83
2022/01/16 08:28:01;;;;;;;30.27;14.37;;;;;;;2.23;73.39;100285.78;5016376;28;20174;-83
2022/01/16 08:30:26;;;;;;;32.37;14.37;;;;;;;3.81;74.51;100551.84;5015446;28;20249;-83
2022/01/16 08:32:52;;;;;;;37.13;18.50;;;;;;;1.74;72.48;100066.69;5014810;28;20238;-85
2022/01/16 08:35:18;;;;;;;40.23;18.60;;;;;;;5.12;71.79;100538.91;5014530;28;20186;-83
2022/01/16 08:37:45;;;;;;;29.00;11.97;;;;;;;4.67;71.92;100533.41;5015589;28;20531;-85
2022/01/16 08:40:11;;;;;;;39.87;19.00;;;;;;;4.72;71.54;100537.22;4998826;28;20188;-84
2022/01/16 08:42:39;;;;;;;39.73;18.57;;;;;;;3.88;72.62;100402.97;4998318;28;20857;-84
2022/01/16 08:45:06;;;;;;;33.40;16.23;;;;;;;4.20;72.62;100470.88;5014916;28;20398;-83
2022/01/16 08:47:38;;;;;;;47.63;22.40;;;;;;;4.63;73.34;100536.44;5001301;28;20433;-84
2022/01/16 08:50:06;;;;;;;34.47;15.73;;;;;;;4.10;71.99;100436.59;5015952;28;20390;-83
2022/01/16 08:52:32;;;;;;;39.33;18.77;;;;;;;3.17;72.78;100296.66;5018472;28;20933;-84
2022/01/16 08:54:57;;;;;;;35.50;17.53;;;;;;;3.61;72.49;100388.97;5021557;28;20448;-82
2022/01/16 08:57:23;;;;;;;31.80;16.27;;;;;;;4.11;72.06;100439.25;5014124;28;20416;-83
2022/01/16 08:59:48;;;;;;;31.27;15.83;;;;;;;4.92;71.74;100522.19;5013738;28;20618;-84
2022/01/16 09:02:14;;;;;;;42.70;19.27;;;;;;;4.97;71.32;100525.09;5013778;28;20227;-83
2022/01/16 09:04:39;;;;;;;32.70;15.33;;;;;;;4.14;71.76;100393.53;5014485;28;20169;-83
2022/01/16 09:07:04;;;;;;;64.97;30.10;;;;;;;5.54;70.30;100527.38;5013098;28;20241;-84
2022/01/16 09:09:31;;;;;;;44.23;19.77;;;;;;;3.82;68.27;100205.47;5013369;28;20158;-84
2022/01/16 09:11:56;;;;;;;71.33;31.43;;;;;;;6.34;64.36;100510.34;4994806;28;20183;-84
2022/01/16 09:14:22;;;;;;;56.77;27.27;;;;;;;6.06;64.29;100436.94;4995019;28;20530;-84
2022/01/16 09:16:47;;;;;;;52.07;24.30;;;;;;;6.60;63.49;100538.38;5012015;28;20194;-83
2022/01/16 09:19:13;;;;;;;53.40;26.93;;;;;;;6.35;62.35;100366.22;5013206;28;20169;-83
2022/01/16 09:21:38;;;;;;;53.30;26.97;;;;;;;6.34;61.14;100315.09;5012049;28;20206;-85
2022/01/16 09:24:04;;;;;;;52.23;23.90;;;;;;;6.37;60.89;100310.25;5013668;28;20163;-84
2022/01/16 09:26:30;;;;;;;35.43;19.13;;;;;;;5.19;60.43;100112.84;5019536;28;20737;-83
2022/01/16 09:28:55;;;;;;;79.17;36.47;;;;;;;7.32;59.20;100421.31;5014768;28;20448;-84
2022/01/16 09:31:21;;;;;;;47.60;24.70;;;;;;;6.82;59.76;100415.06;5013745;28;20238;-84
2022/01/16 09:33:46;;;;;;;56.40;31.00;;;;;;;6.70;60.61;100295.91;5014959;28;20225;-84
2022/01/16 09:36:12;;;;;;;65.60;31.47;;;;;;;7.86;58.93;100432.78;5015603;28;20187;-84
2022/01/16 09:38:39;;;;;;;69.83;33.23;;;;;;;7.07;59.72;100373.31;5017731;28;20251;-83
2022/01/16 09:41:05;;;;;;;58.03;26.20;;;;;;;7.75;59.97;100495.84;5018248;28;20409;-84
2022/01/16 09:43:35;;;;;;;58.13;29.63;;;;;;;4.59;59.46;99935.13;5017505;28;20402;-83
2022/01/16 09:46:01;;;;;;;67.93;31.33;;;;;;;6.88;58.28;100254.44;5017155;28;20656;-84
2022/01/16 09:48:27;;;;;;;56.63;26.30;;;;;;;8.13;58.97;100487.69;5017055;28;20497;-85
2022/01/16 09:50:53;;;;;;;25.00;13.60;;;;;;;6.24;59.50;100246.38;5016836;28;20913;-84
2022/01/16 09:53:20;;;;;;;30.00;15.83;;;;;;;5.54;62.04;100194.97;5016991;28;20404;-85
2022/01/16 09:55:46;;;;;;;58.83;27.07;;;;;;;6.09;59.82;100120.47;5015901;28;20191;-84
2022/01/16 09:58:12;;;;;;;24.33;13.03;;;;;;;4.99;59.86;100140.56;5017424;28;20174;-84
2022/01/16 10:00:37;;;;;;;30.07;15.83;;;;;;;7.07;59.91;100413.59;5018710;28;20253;-84
2022/01/16 10:03:04;;;;;;;35.60;18.43;;;;;;;6.59;59.07;100232.25;5002544;28;20167;-85
2022/01/16 10:05:37;;;;;;;46.50;22.60;;;;;;;7.93;58.31;100460.22;5016516;28;20159;-83
2022/01/16 10:08:06;;;;;;;75.33;28.47;;;;;;;7.72;57.96;100396.53;5020134;28;20409;-83
2022/01/16 10:10:34;;;;;;;133.70;45.23;;;;;;;8.09;56.33;100348.66;5018083;28;20173;-83
2022/01/16 10:13:16;;;;;;;20.67;11.27;;;;;;;7.65;56.93;100459.88;5000425;28;20630;-84
2022/01/16 10:15:51;;;;;;;24.63;12.17;;;;;;;6.85;57.34;100350.75;5017918;28;20292;-84
2022/01/16 10:18:30;;;;;;;17.73;9.63;;;;;;;6.93;57.09;100396.59;4999636;28;20194;-84
2022/01/16 10:20:55;;;;;;;88.70;36.23;;;;;;;7.89;56.48;100406.91;5017627;28;20500;-83
2022/01/16 10:23:21;;;;;;;63.57;28.27;;;;;;;6.83;54.75;100206.31;5016530;28;20951;-83
2022/01/16 10:25:48;;;;;;;38.53;18.77;;;;;;;8.48;54.27;100449.81;5020287;28;20685;-83
2022/01/16 10:28:15;;;;;;;34.70;18.50;;;;;;;8.83;54.65;100442.97;5018203;28;20167;-84
2022/01/16 10:30:47;;;;;;;31.97;16.30;;;;;;;7.58;53.16;100139.34;5017117;28;20216;-84
2022/01/16 10:33:19;;;;;;;38.77;20.53;;;;;;;8.39;51.96;100254.03;5017432;28;20158;-84
2022/01/16 10:35:47;;;;;;;39.60;20.90;;;;;;;9.36;53.05;100450.69;4999941;28;20238;-84
2022/01/16 10:38:21;;;;;;;45.97;20.37;;;;;;;9.46;52.27;100432.81;4999951;28;20717;-84
2022/01/16 10:40:50;;;;;;;26.87;15.43;;;;;;;9.82;51.66;100422.50;5017519;28;20170;-84
2022/01/16 10:43:36;;;;;;;51.73;24.00;;;;;;;9.67;51.86;100424.06;5000389;28;20634;-84
2022/01/16 10:46:01;;;;;;;38.37;19.83;;;;;;;8.95;52.22;100263.63;4936515;29;20192;-84
2022/01/16 10:48:27;;;;;;;30.77;15.83;;;;;;;8.82;51.59;100274.56;4937739;29;20201;-84
2022/01/16 10:50:53;;;;;;;25.33;13.73;;;;;;;8.26;51.81;100315.38;4937769;29;20193;-84
2022/01/16 10:53:24;;;;;;;43.73;19.50;;;;;;;8.75;52.11;100403.72;4936066;29;20161;-84
2022/01/16 10:55:51;;;;;;;17.30;9.50;;;;;;;9.27;50.62;100400.44;4920667;29;20236;-86
2022/01/16 10:58:20;;;;;;;20.77;11.43;;;;;;;9.34;49.15;100298.06;4938290;29;20193;-84
2022/01/16 11:00:53;;;;;;;24.17;12.57;;;;;;;9.23;52.68;100392.56;4935947;29;20260;-85
2022/01/16 11:03:20;;;;;;;18.77;11.03;;;;;;;8.13;52.98;100186.72;4936842;29;20662;-84
2022/01/16 11:05:46;;;;;;;29.93;15.47;;;;;;;8.13;52.28;100090.91;4938869;29;20712;-83
2022/01/16 11:08:17;;;;;;;28.50;16.53;;;;;;;10.21;51.84;100386.19;4937164;29;20181;-83
2022/01/16 11:10:45;;;;;;;56.23;29.70;;;;;;;9.22;51.92;100229.13;4937902;29;20189;-82
2022/01/16 11:13:14;;;;;;;45.27;21.57;;;;;;;9.17;51.59;100274.31;4939778;29;20179;-83
2022/01/16 11:15:43;;;;;;;20.63;10.00;;;;;;;7.72;51.41;100156.22;4935962;29;20232;-83
2022/01/16 11:18:10;;;;;;;19.97;10.97;;;;;;;9.27;52.27;100390.31;4935657;29;20177;-83
2022/01/16 11:20:38;;;;;;;21.43;11.90;;;;;;;9.54;52.07;100375.16;4936202;29;20174;-83
2022/01/16 11:25:38;;;;;;;19.10;10.47;;;;;;;9.78;49.96;100376.72;5016228;28;20169;-83
2022/01/16 11:28:08;;;;;;;17.50;9.40;;;;;;;7.03;51.38;100125.50;5017497;28;20628;-83
2022/01/16 11:30:40;;;;;;;14.60;9.23;;;;;;;8.37;50.01;100299.34;5001383;28;20566;-84
2022/01/16 11:33:06;;;;;;;32.17;17.20;;;;;;;7.88;50.82;100138.84;4999513;28;20555;-83
2022/01/16 11:35:34;;;;;;;22.73;12.97;;;;;;;9.53;51.93;100364.19;5017455;28;20194;-82
2022/01/16 11:38:01;;;;;;;29.37;16.20;;;;;;;7.87;51.34;100028.72;5018246;28;20174;-84
2022/01/16 11:40:45;;;;;;;22.80;12.50;;;;;;;9.75;51.35;100313.31;5015349;28;20173;-84
2022/01/16 11:43:22;;;;;;;18.40;11.43;;;;;;;9.98;51.03;100356.03;5014574;28;20171;-84
2022/01/16 11:45:54;;;;;;;30.27;15.83;;;;;;;10.08;50.55;100351.63;5015287;28;20269;-82
2022/01/16 11:48:50;;;;;;;17.67;10.90;;;;;;;9.69;51.03;100351.72;5014745;28;20159;-83
2022/01/16 11:53:59;;;;;;;15.77;9.23;;;;;;;9.56;49.99;100348.34;5016296;28;20234;-82
2022/01/16 11:59:13;;;;;;;28.70;16.67;;;;;;;9.75;49.90;100329.31;5016188;28;20185;-83
2022/01/16 12:02:07;;;;;;;25.97;16.30;;;;;;;9.71;48.65;100339.16;5015983;28;20171;-82
2022/01/16 12:04:33;;;;;;;23.47;12.07;;;;;;;9.33;48.92;100345.25;4936314;29;20199;-83
2022/01/16 12:07:13;;;;;;;26.03;12.53;;;;;;;8.54;49.40;100336.66;4937507;29;20209;-84
2022/01/16 12:09:46;;;;;;;32.87;17.73;;;;;;;9.03;49.49;100335.72;4935315;29;20189;-82
2022/01/16 12:12:11;;;;;;;26.23;13.63;;;;;;;9.42;49.10;100338.22;4934787;29;20178;-82